createdAt,value
2024-03-06T00:02:22.058Z,93.29
2024-03-06T00:05:03.124Z,95.21
2024-03-06T00:07:54.325Z,95.96
2024-03-06T00:10:32.937Z,95.78
2024-03-06T00:13:20.058Z,95.18
2024-03-06T00:15:58.650Z,95.06
2024-03-06T00:18:36.454Z,95.21
2024-03-06T00:21:15.552Z,94.66
2024-03-06T00:24:01.053Z,94.92
2024-03-06T00:26:40.495Z,93.39
2024-03-06T00:29:18.910Z,92.91
2024-03-06T00:32:03.939Z,92.25
2024-03-06T00:34:44.139Z,92.07
2024-03-06T00:37:21.163Z,92.14
2024-03-06T00:39:56.221Z,92.54
2024-03-06T00:42:34.096Z,92.57
2024-03-06T00:45:21.389Z,92.75
2024-03-06T00:48:02.644Z,92.12
2024-03-06T00:51:00.549Z,92.01
2024-03-06T00:53:32.640Z,91.46
2024-03-06T00:56:08.667Z,90.73
2024-03-06T00:58:45.865Z,90.95
2024-03-06T01:01:26.210Z,91.57
2024-03-06T01:04:05.304Z,91.97
2024-03-06T01:06:50.212Z,91.38
2024-03-06T01:09:44.207Z,91.27
2024-03-06T01:12:33.256Z,90.88
2024-03-06T01:15:12.610Z,90.67
2024-03-06T01:18:01.186Z,89.69
2024-03-06T01:20:47.494Z,90.25
2024-03-06T01:23:30.093Z,92.04
2024-03-06T01:26:08.676Z,92.97
2024-03-06T01:28:47.567Z,95.05
2024-03-06T01:31:23.000Z,95.86
2024-03-06T01:34:02.395Z,96.49
2024-03-06T01:36:38.316Z,97.17
2024-03-06T01:39:16.207Z,97.07
2024-03-06T01:41:52.857Z,97.27
2024-03-06T01:44:32.254Z,97.45
2024-03-06T01:47:08.873Z,98.09
2024-03-06T01:50:01.413Z,97.75
2024-03-06T01:52:40.531Z,97.28
2024-03-06T01:55:23.594Z,97.16
2024-03-06T01:58:09.916Z,96.34
2024-03-06T02:00:43.195Z,97.10
2024-03-06T02:03:29.489Z,96.47
2024-03-06T02:06:11.579Z,96.22
2024-03-06T02:08:46.753Z,96.38
2024-03-06T02:11:21.360Z,96.37
2024-03-06T02:14:00.761Z,95.87
2024-03-06T02:16:41.597Z,95.64
2024-03-06T02:19:22.082Z,96.08
2024-03-06T02:22:16.323Z,96.17
2024-03-06T02:24:55.136Z,96.52
2024-03-06T02:27:39.417Z,96.02
2024-03-06T02:30:16.567Z,96.00
2024-03-06T02:33:03.624Z,95.50
2024-03-06T02:35:41.141Z,95.04
2024-03-06T02:38:25.138Z,95.37
2024-03-06T02:41:03.371Z,95.03
2024-03-06T02:43:43.355Z,95.21
2024-03-06T02:46:18.855Z,94.84
2024-03-06T02:48:57.407Z,94.91
2024-03-06T02:51:37.622Z,94.30
2024-03-06T02:54:23.342Z,94.65
2024-03-06T02:56:58.307Z,94.44
2024-03-06T02:59:40.790Z,94.57
2024-03-06T03:02:21.291Z,94.72
2024-03-06T03:05:05.329Z,94.43
2024-03-06T03:07:47.375Z,94.46
2024-03-06T03:10:31.414Z,94.59
2024-03-06T03:13:12.911Z,94.55
2024-03-06T03:16:02.277Z,94.79
2024-03-06T03:18:45.525Z,94.89
2024-03-06T03:21:32.427Z,94.52
2024-03-06T03:24:08.551Z,95.44
2024-03-06T03:26:53.353Z,95.78
2024-03-06T03:29:37.670Z,95.64
2024-03-06T03:32:17.286Z,95.89
2024-03-06T03:34:59.438Z,95.47
2024-03-06T03:37:42.835Z,96.30
2024-03-06T03:40:23.673Z,97.58
2024-03-06T03:43:10.881Z,98.76
2024-03-06T03:45:49.074Z,99.11
2024-03-06T03:48:31.947Z,99.72
2024-03-06T03:51:09.802Z,99.89
2024-03-06T03:53:53.824Z,99.30
2024-03-06T03:56:39.163Z,100.00
2024-03-06T03:59:28.010Z,100.00
2024-03-06T04:02:07.404Z,100.00
2024-03-06T04:04:43.950Z,100.00
2024-03-06T04:07:22.543Z,99.93
2024-03-06T04:10:07.042Z,100.00
2024-03-06T04:12:48.485Z,100.00
2024-03-06T04:15:31.202Z,100.00
2024-03-06T04:18:10.049Z,100.00
2024-03-06T04:21:02.766Z,100.00
2024-03-06T04:23:40.698Z,100.00
2024-03-06T04:26:22.310Z,100.00
2024-03-06T04:28:54.155Z,100.00
2024-03-06T04:31:53.473Z,100.00
2024-03-06T04:34:34.268Z,100.00
2024-03-06T04:37:11.661Z,100.00
2024-03-06T04:39:46.660Z,100.00
2024-03-06T04:42:27.798Z,100.00
2024-03-06T04:45:05.886Z,100.00
2024-03-06T04:47:59.685Z,100.00
2024-03-06T04:50:41.257Z,100.00
2024-03-06T04:53:23.080Z,100.00
2024-03-06T04:55:59.948Z,100.00
2024-03-06T04:58:38.456Z,100.00
2024-03-06T05:01:14.618Z,100.00
2024-03-06T05:59:15.422Z,100.00
2024-03-06T06:01:51.673Z,100.00
2024-03-06T06:04:27.110Z,100.00
2024-03-06T06:07:06.438Z,100.00
2024-03-06T06:09:47.818Z,100.00
2024-03-06T06:12:29.295Z,100.00
2024-03-06T06:15:06.219Z,100.00
2024-03-06T06:17:43.414Z,100.00
2024-03-06T06:20:34.006Z,100.00
2024-03-06T06:23:16.464Z,100.00
2024-03-06T06:25:53.644Z,100.00
2024-03-06T06:28:42.314Z,100.00
2024-03-06T06:31:16.385Z,100.00
2024-03-06T06:33:58.930Z,100.00
2024-03-06T06:36:34.736Z,100.00
2024-03-06T06:39:31.096Z,100.00
2024-03-06T06:42:10.462Z,100.00
2024-03-06T06:44:55.246Z,100.00
2024-03-06T06:47:31.851Z,100.00
2024-03-06T06:50:09.614Z,100.00
2024-03-06T06:52:49.580Z,100.00
2024-03-06T06:55:32.984Z,100.00
2024-03-06T06:58:13.313Z,100.00
2024-03-06T07:01:09.920Z,100.00
2024-03-06T07:03:50.965Z,100.00
2024-03-06T07:06:31.960Z,100.00
2024-03-06T07:09:15.885Z,100.00
2024-03-06T07:12:08.132Z,100.00
2024-03-06T07:14:48.083Z,99.55
2024-03-06T07:17:37.068Z,98.86
2024-03-06T07:20:27.751Z,98.84
2024-03-06T07:23:02.488Z,98.62
2024-03-06T07:25:46.052Z,99.82
2024-03-06T07:28:36.850Z,99.83
2024-03-06T07:31:21.159Z,100.00
2024-03-06T07:33:58.868Z,100.00
2024-03-06T07:36:38.168Z,100.00
2024-03-06T07:39:17.321Z,100.00
2024-03-06T07:42:06.681Z,100.00
2024-03-06T07:44:47.778Z,100.00
2024-03-06T07:47:25.797Z,100.00
2024-03-06T07:50:28.681Z,100.00
2024-03-06T07:53:00.088Z,100.00
2024-03-06T07:55:39.969Z,100.00
2024-03-06T07:58:19.216Z,100.00
2024-03-06T08:00:59.602Z,100.00
2024-03-06T08:03:39.779Z,100.00
2024-03-06T08:06:28.654Z,100.00
2024-03-06T08:09:12.720Z,100.00
2024-03-06T08:11:55.743Z,100.00
2024-03-06T08:14:33.762Z,100.00
2024-03-06T08:17:14.329Z,100.00
2024-03-06T08:19:59.670Z,100.00
2024-03-06T08:22:47.532Z,100.00
2024-03-06T08:25:24.120Z,100.00
2024-03-06T08:28:08.164Z,100.00
2024-03-06T08:30:50.390Z,100.00
2024-03-06T08:33:30.045Z,100.00
2024-03-06T08:36:07.244Z,100.00
2024-03-06T08:38:55.965Z,100.00
2024-03-06T08:41:36.604Z,100.00
2024-03-06T08:44:13.570Z,100.00
2024-03-06T08:46:53.541Z,100.00
2024-03-06T08:49:41.675Z,100.00
2024-03-06T08:52:23.552Z,100.00
2024-03-06T08:55:04.172Z,100.00
2024-03-06T08:57:51.839Z,100.00
2024-03-06T09:00:30.922Z,100.00
2024-03-06T09:03:10.223Z,100.00
2024-03-06T09:05:51.979Z,100.00
2024-03-06T09:08:30.810Z,100.00
2024-03-06T09:11:21.268Z,99.80
2024-03-06T09:14:08.881Z,98.93
2024-03-06T09:16:45.056Z,99.19
2024-03-06T09:19:19.817Z,99.00
2024-03-06T09:21:57.792Z,99.63
2024-03-06T09:24:48.799Z,99.68
2024-03-06T09:27:37.510Z,99.25
2024-03-06T09:30:30.709Z,98.35
2024-03-06T09:33:14.134Z,99.54
2024-03-06T09:35:53.795Z,99.78
2024-03-06T09:38:36.369Z,98.46
2024-03-06T09:41:16.230Z,97.36
2024-03-06T09:44:05.860Z,98.34
2024-03-06T09:46:45.105Z,98.41
2024-03-06T09:49:24.347Z,98.41
2024-03-06T09:52:02.831Z,97.03
2024-03-06T09:54:49.489Z,95.22
2024-03-06T09:57:24.954Z,95.12
2024-03-06T10:00:21.581Z,95.77
2024-03-06T10:03:12.267Z,94.31
2024-03-06T10:05:55.667Z,94.99
2024-03-06T10:08:35.481Z,95.51
2024-03-06T10:11:14.395Z,95.39
2024-03-06T10:13:58.662Z,94.95
2024-03-06T10:16:38.547Z,94.28
2024-03-06T10:19:53.448Z,94.33
2024-03-06T10:22:42.768Z,92.91
2024-03-06T10:25:28.135Z,92.66
2024-03-06T10:28:20.273Z,92.30
2024-03-06T10:31:00.276Z,94.23
2024-03-06T10:33:44.440Z,93.53
2024-03-06T10:36:28.489Z,94.49
2024-03-06T10:39:12.162Z,95.27
2024-03-06T10:41:48.817Z,94.73
2024-03-06T10:44:38.072Z,95.27
2024-03-06T10:47:19.452Z,95.46
2024-03-06T10:50:11.725Z,92.12
2024-03-06T10:52:57.931Z,90.82
2024-03-06T10:55:42.162Z,90.30
2024-03-06T10:58:18.355Z,90.48
2024-03-06T11:00:52.627Z,89.21
2024-03-06T11:03:37.298Z,85.88
2024-03-06T11:06:26.055Z,84.33
2024-03-06T11:09:17.833Z,85.71
2024-03-06T11:12:06.535Z,85.39
2024-03-06T11:14:58.241Z,83.46
2024-03-06T11:17:35.790Z,82.55
2024-03-06T11:20:30.364Z,81.30
2024-03-06T11:23:26.613Z,83.24
2024-03-06T11:26:19.905Z,84.56
2024-03-06T11:28:55.045Z,83.23
2024-03-06T11:31:43.203Z,80.72
2024-03-06T11:34:21.568Z,79.91
2024-03-06T11:37:11.314Z,78.53
2024-03-06T11:40:03.591Z,76.87
2024-03-06T11:42:54.767Z,78.32
2024-03-06T11:45:32.597Z,76.67
2024-03-06T11:48:28.939Z,77.10
2024-03-06T11:51:11.205Z,75.64
2024-03-06T11:53:50.670Z,71.68
2024-03-06T11:56:33.746Z,73.39
2024-03-06T11:59:09.237Z,71.54
2024-03-06T12:01:51.054Z,70.89
2024-03-06T12:04:30.505Z,71.80
2024-03-06T12:07:25.232Z,69.51
2024-03-06T12:10:02.727Z,68.83
2024-03-06T12:12:56.978Z,66.40
2024-03-06T12:15:38.258Z,67.75
2024-03-06T12:18:14.675Z,69.00
2024-03-06T12:20:54.390Z,68.31
2024-03-06T12:23:44.827Z,68.95
2024-03-06T12:26:27.355Z,69.67
2024-03-06T12:29:23.754Z,69.38
2024-03-06T12:31:59.952Z,70.38
2024-03-06T12:34:40.399Z,71.49
2024-03-06T12:37:21.352Z,70.36
2024-03-06T12:40:03.785Z,69.43
2024-03-06T12:42:46.249Z,69.34
2024-03-06T12:45:32.449Z,69.23
2024-03-06T12:48:13.274Z,70.29
2024-03-06T12:50:55.231Z,67.16
2024-03-06T12:53:35.453Z,67.26
2024-03-06T12:56:24.891Z,67.29
2024-03-06T12:59:15.724Z,66.89
2024-03-06T13:01:59.336Z,67.74
2024-03-06T13:04:41.069Z,65.28
2024-03-06T13:07:19.809Z,65.44
2024-03-06T13:09:56.156Z,63.38
2024-03-06T13:12:31.489Z,63.44
2024-03-06T13:15:14.149Z,64.86
2024-03-06T13:18:05.741Z,65.50
2024-03-06T13:20:44.469Z,66.28
2024-03-06T13:23:23.285Z,66.42
2024-03-06T13:26:04.007Z,62.60
2024-03-06T13:28:39.977Z,55.56
2024-03-06T13:31:27.149Z,54.43
2024-03-06T13:34:08.054Z,54.34
2024-03-06T13:36:39.234Z,55.69
2024-03-06T13:39:16.969Z,56.93
2024-03-06T13:41:56.416Z,62.70
2024-03-06T13:44:50.382Z,72.13
2024-03-06T13:47:26.449Z,75.49
2024-03-06T13:50:17.465Z,77.04
2024-03-06T13:52:58.748Z,78.08
2024-03-06T13:55:37.190Z,82.20
2024-03-06T13:58:30.486Z,85.86
2024-03-06T14:01:08.169Z,87.68
2024-03-06T14:03:43.392Z,89.54
2024-03-06T14:06:30.945Z,94.39
2024-03-06T14:09:15.019Z,93.60
2024-03-06T14:11:54.450Z,90.74
2024-03-06T14:14:32.246Z,89.73
2024-03-06T14:17:15.352Z,89.53
2024-03-06T14:19:50.946Z,87.36
2024-03-06T14:22:42.724Z,85.38
2024-03-06T14:25:42.327Z,83.13
2024-03-06T14:28:19.848Z,83.52
2024-03-06T14:31:00.302Z,82.92
2024-03-06T14:33:40.862Z,80.65
2024-03-06T14:36:26.365Z,78.87
2024-03-06T14:39:20.172Z,78.88
2024-03-06T14:42:06.605Z,79.20
2024-03-06T14:44:51.515Z,78.85
2024-03-06T14:47:36.767Z,79.45
2024-03-06T14:50:21.121Z,79.24
2024-03-06T14:52:52.857Z,76.23
2024-03-06T14:55:35.551Z,76.78
2024-03-06T14:58:21.168Z,76.07
2024-03-06T15:01:03.471Z,71.80
2024-03-06T15:03:45.944Z,70.51
2024-03-06T15:06:27.830Z,70.40
2024-03-06T15:09:11.768Z,70.00
2024-03-06T15:12:00.620Z,67.34
2024-03-06T15:14:46.999Z,67.13
2024-03-06T15:17:23.224Z,67.06
2024-03-06T15:20:03.800Z,66.25
2024-03-06T15:22:43.492Z,64.61
2024-03-06T15:25:30.090Z,66.03
2024-03-06T15:28:26.528Z,65.79
2024-03-06T15:31:15.473Z,65.71
2024-03-06T15:33:52.600Z,64.81
2024-03-06T15:36:33.435Z,64.89
2024-03-06T15:39:11.706Z,63.89
2024-03-06T15:41:53.521Z,62.47
2024-03-06T15:44:40.022Z,63.65
2024-03-06T15:47:24.341Z,63.59
2024-03-06T15:50:05.348Z,64.90
2024-03-06T15:52:37.331Z,64.54
2024-03-06T15:55:25.652Z,65.59
2024-03-06T15:57:58.089Z,66.92
2024-03-06T16:01:01.248Z,67.25
2024-03-06T16:03:48.503Z,67.75
2024-03-06T16:06:39.753Z,67.82
2024-03-06T16:09:30.601Z,68.30
2024-03-06T16:12:15.268Z,68.34
2024-03-06T16:14:52.657Z,68.34
2024-03-06T16:17:34.892Z,69.52
2024-03-06T16:20:28.352Z,70.02
2024-03-06T16:23:11.969Z,70.44
2024-03-06T16:25:54.119Z,70.57
2024-03-06T16:28:30.252Z,71.82
2024-03-06T16:31:10.965Z,73.22
2024-03-06T16:33:56.608Z,74.28
2024-03-06T16:36:29.464Z,74.41
2024-03-06T16:39:17.882Z,74.89
2024-03-06T16:41:56.767Z,75.49
2024-03-06T16:44:43.459Z,76.35
2024-03-06T16:47:32.865Z,76.56
2024-03-06T16:50:21.483Z,77.29
2024-03-06T16:52:58.333Z,77.55
2024-03-06T16:55:39.584Z,77.61
2024-03-06T16:58:21.793Z,77.62
2024-03-06T17:01:02.076Z,77.92
2024-03-06T17:03:41.530Z,78.72
2024-03-06T17:06:33.311Z,78.92
2024-03-06T17:09:12.759Z,77.38
2024-03-06T17:12:06.224Z,76.81
2024-03-06T17:14:54.522Z,76.50
2024-03-06T17:17:41.468Z,77.10
2024-03-06T17:20:28.182Z,77.68
2024-03-06T17:23:20.202Z,78.51
2024-03-06T17:25:58.259Z,78.56
2024-03-06T17:28:52.346Z,79.09
2024-03-06T17:31:33.806Z,78.90
2024-03-06T17:34:17.550Z,79.34
2024-03-06T17:36:54.050Z,79.88
2024-03-06T17:39:37.519Z,80.14
2024-03-06T17:42:18.905Z,80.40
2024-03-06T17:44:59.957Z,80.64
2024-03-06T17:47:39.857Z,80.59
2024-03-06T17:50:14.465Z,80.90
2024-03-06T17:53:02.079Z,80.91
2024-03-06T17:55:45.775Z,81.36
2024-03-06T17:58:40.275Z,81.23
2024-03-06T18:01:19.237Z,80.77
2024-03-06T18:04:02.092Z,81.14
2024-03-06T18:06:37.148Z,80.87
2024-03-06T18:09:19.123Z,80.96
2024-03-06T18:12:13.749Z,81.00
2024-03-06T18:14:47.806Z,81.19
2024-03-06T18:17:24.243Z,81.02
2024-03-06T18:20:07.582Z,81.39
2024-03-06T18:22:54.640Z,81.51
2024-03-06T18:25:35.311Z,81.61
2024-03-06T18:28:21.787Z,81.51
2024-03-06T18:31:02.576Z,81.19
2024-03-06T18:33:39.943Z,81.38
2024-03-06T18:36:15.270Z,81.21
2024-03-06T18:38:58.428Z,80.55
2024-03-06T18:41:35.056Z,81.13
2024-03-06T18:44:17.037Z,81.49
2024-03-06T18:47:00.013Z,82.05
2024-03-06T18:49:53.930Z,81.81
2024-03-06T18:52:32.894Z,82.28
2024-03-06T18:55:14.184Z,82.63
2024-03-06T18:58:05.868Z,83.45
2024-03-06T19:00:58.462Z,83.94
2024-03-06T19:03:34.163Z,83.57
2024-03-06T19:06:24.873Z,82.79
2024-03-06T19:09:04.887Z,83.68
2024-03-06T19:11:42.452Z,83.43
2024-03-06T19:14:25.188Z,82.94
2024-03-06T19:17:22.080Z,82.83
2024-03-06T19:20:02.479Z,82.48
2024-03-06T19:22:34.680Z,82.56
2024-03-06T19:25:19.905Z,82.09
2024-03-06T19:27:59.095Z,81.64
2024-03-06T19:30:34.287Z,81.30
2024-03-06T19:33:26.908Z,81.85
2024-03-06T19:36:11.783Z,81.59
2024-03-06T19:38:53.999Z,81.67
2024-03-06T19:41:33.270Z,82.08
2024-03-06T19:44:10.316Z,81.97
2024-03-06T19:47:11.121Z,80.98
2024-03-06T19:49:58.936Z,81.13
2024-03-06T19:52:45.510Z,80.71
2024-03-06T19:55:24.471Z,80.53
2024-03-06T19:58:00.533Z,80.50
2024-03-06T20:00:35.762Z,79.77
2024-03-06T20:03:16.239Z,79.53
2024-03-06T20:05:56.757Z,79.31
2024-03-06T20:08:37.034Z,78.72
2024-03-06T20:11:14.841Z,78.86
2024-03-06T20:14:14.211Z,78.87
2024-03-06T20:16:47.057Z,79.25
2024-03-06T20:19:34.145Z,79.73
2024-03-06T20:22:24.276Z,79.89
2024-03-06T20:25:02.583Z,80.05
2024-03-06T20:27:39.466Z,80.43
2024-03-06T20:30:25.846Z,80.66
2024-03-06T20:33:08.511Z,81.63
2024-03-06T20:35:50.560Z,83.08
2024-03-06T20:38:35.710Z,84.45
2024-03-06T20:41:16.397Z,84.92
2024-03-06T20:44:04.180Z,85.74
2024-03-06T20:46:36.262Z,87.40
2024-03-06T20:49:10.164Z,89.29
2024-03-06T20:51:56.570Z,90.64
2024-03-06T20:54:43.789Z,91.71
2024-03-06T20:57:28.649Z,91.69
2024-03-06T21:00:14.008Z,92.04
2024-03-06T21:02:55.791Z,92.38
2024-03-06T21:05:53.282Z,92.48
2024-03-06T21:08:35.542Z,92.80
2024-03-06T21:11:27.100Z,93.01
2024-03-06T21:14:03.355Z,92.91
2024-03-06T21:16:40.856Z,92.92
2024-03-06T21:19:26.530Z,93.54
2024-03-06T21:22:00.453Z,93.70
2024-03-06T21:24:43.159Z,93.85
2024-03-06T21:27:31.457Z,94.25
2024-03-06T21:30:10.116Z,94.54
2024-03-06T21:32:59.851Z,95.01
2024-03-06T21:35:41.529Z,94.68
2024-03-06T21:38:40.441Z,95.27
2024-03-06T21:41:22.818Z,95.86
2024-03-06T21:44:09.960Z,96.41
2024-03-06T21:46:48.310Z,96.94
2024-03-06T21:49:24.616Z,97.49
2024-03-06T21:52:05.363Z,97.54
2024-03-06T21:54:50.617Z,98.33
2024-03-06T21:57:29.591Z,97.90
2024-03-06T22:00:26.137Z,97.75
2024-03-06T22:03:20.588Z,98.18
2024-03-06T22:05:53.733Z,97.90
2024-03-06T22:08:47.751Z,97.93
2024-03-06T22:11:26.932Z,98.50
2024-03-06T22:14:07.357Z,97.87
2024-03-06T22:16:48.607Z,97.84
2024-03-06T22:19:25.700Z,97.80
2024-03-06T22:22:08.896Z,97.40
2024-03-06T22:24:41.615Z,96.92
2024-03-06T22:27:21.703Z,96.57
2024-03-06T22:30:04.073Z,96.70
2024-03-06T22:32:51.035Z,96.34
2024-03-06T22:35:30.807Z,95.85
2024-03-06T22:38:11.864Z,96.17
2024-03-06T22:41:08.481Z,95.81
2024-03-06T22:43:46.087Z,95.28
2024-03-06T22:46:22.522Z,95.75
2024-03-06T22:49:12.677Z,95.20
2024-03-06T22:51:54.247Z,94.28
2024-03-06T22:54:34.762Z,94.56
2024-03-06T22:57:14.084Z,94.68
2024-03-06T22:59:58.792Z,94.38
2024-03-06T23:02:38.716Z,94.47
2024-03-06T23:05:18.296Z,94.98
2024-03-06T23:08:01.262Z,94.93
2024-03-06T23:10:41.039Z,95.33
2024-03-06T23:13:21.353Z,95.33
2024-03-06T23:16:04.246Z,95.54
2024-03-06T23:18:46.473Z,96.07
2024-03-06T23:21:40.247Z,96.15
2024-03-06T23:24:18.016Z,95.62
2024-03-06T23:26:51.473Z,96.12
2024-03-06T23:29:22.342Z,95.58
2024-03-06T23:32:10.753Z,95.75
2024-03-06T23:34:49.656Z,95.61
2024-03-06T23:37:33.812Z,95.31
2024-03-06T23:40:20.239Z,95.09
2024-03-06T23:43:07.929Z,95.12
2024-03-06T23:45:43.684Z,95.10
2024-03-06T23:48:17.890Z,95.23
2024-03-06T23:51:10.328Z,94.48
2024-03-06T23:53:57.912Z,95.11
2024-03-06T23:56:36.994Z,95.62
2024-03-06T23:59:19.548Z,95.64
